Time;durP1;ratioP1;P1;durP2;ratioP2;P2;SDS_P1;SDS_P2;PMS_P1;PMS_P2;Temp;Humidity;BMP_temperature;BMP_pressure;BME280_temperature;BME280_humidity;BME280_pressure;Samples;Min_cycle;Max_cycle;Signal;HPM_P1;HPM_P2
2021/03/22 00:00:51;;;;;;;3.58;0.43;;;20.20;37.50;;;;;;5045207;28;20032;-84
2021/03/22 00:03:19;;;;;;;1.88;0.17;;;20.20;37.50;;;;;;5030806;28;20092;-84
2021/03/22 00:05:44;;;;;;;1.20;0.30;;;20.20;37.50;;;;;;5031038;28;20024;-84
2021/03/22 00:08:10;;;;;;;2.95;0.40;;;20.10;37.50;;;;;;5043867;28;20021;-84
2021/03/22 00:10:40;;;;;;;1.55;0.30;;;20.10;37.60;;;;;;5031368;28;20388;-84
2021/03/22 00:13:05;;;;;;;2.05;0.40;;;20.10;37.50;;;;;;5033072;28;20119;-83
2021/03/22 00:15:35;;;;;;;2.10;0.20;;;20.10;37.50;;;;;;5025878;28;20125;-84
2021/03/22 00:18:03;;;;;;;1.02;0.20;;;20.10;37.50;;;;;;5045391;28;20033;-84
2021/03/22 00:20:28;;;;;;;1.80;0.30;;;20.10;37.50;;;;;;5027671;28;20013;-85
2021/03/22 00:22:54;;;;;;;2.72;0.20;;;20.10;37.50;;;;;;5031401;28;20025;-84
2021/03/22 00:25:20;;;;;;;2.92;0.30;;;20.10;37.60;;;;;;5030791;28;20428;-83
2021/03/22 00:27:46;;;;;;;1.17;0.20;;;20.10;37.60;;;;;;5063264;28;20112;-85
2021/03/22 00:30:18;;;;;;;1.92;0.15;;;20.00;37.50;;;;;;5027791;28;20460;-84
2021/03/22 00:32:44;;;;;;;;;;;20.00;37.50;;;;;;5032927;28;20021;-84
2021/03/22 00:35:10;;;;;;;2.97;0.20;;;20.10;37.60;;;;;;5032726;28;20278;-85
2021/03/22 00:37:35;;;;;;;1.73;0.25;;;20.00;37.50;;;;;;5033654;28;20029;-83
2021/03/22 00:40:01;;;;;;;3.40;0.57;;;20.00;37.60;;;;;;5031632;28;20401;-82
2021/03/22 00:42:27;;;;;;;1.23;0.20;;;20.00;37.50;;;;;;5033291;28;20363;-83
2021/03/22 00:44:52;;;;;;;1.70;0.10;;;20.00;37.60;;;;;;5032104;28;20029;-83
2021/03/22 00:47:18;;;;;;;3.92;0.68;;;20.00;37.60;;;;;;5032480;28;20416;-84
2021/03/22 00:49:43;;;;;;;3.33;0.30;;;20.00;37.50;;;;;;5049184;28;20025;-86
2021/03/22 00:52:11;;;;;;;2.08;0.20;;;19.90;37.50;;;;;;5029999;28;20021;-86
2021/03/22 00:54:40;;;;;;;3.25;0.35;;;20.00;37.50;;;;;;5034455;28;20124;-84
2021/03/22 00:57:08;;;;;;;1.13;0.20;;;19.90;37.50;;;;;;5037350;28;20044;-86
2021/03/22 00:59:34;;;;;;;1.75;0.30;;;19.90;37.50;;;;;;5034506;28;20120;-86
2021/03/22 01:02:00;;;;;;;3.92;0.30;;;19.90;38.00;;;;;;5046154;28;20067;-84
2021/03/22 01:04:25;;;;;;;1.10;0.30;;;19.90;37.60;;;;;;5050118;28;20426;-86
2021/03/22 01:06:51;;;;;;;1.77;0.50;;;19.90;37.60;;;;;;5048736;28;20018;-83
2021/03/22 01:09:17;;;;;;;1.77;0.10;;;19.90;37.60;;;;;;5031483;28;20036;-83
2021/03/22 01:11:43;;;;;;;3.50;0.40;;;19.90;37.60;;;;;;5032683;28;20021;-83
2021/03/22 01:14:09;;;;;;;1.55;0.25;;;19.90;37.60;;;;;;5027118;28;20021;-85
2021/03/22 01:16:37;;;;;;;2.17;0.60;;;19.90;37.60;;;;;;5030191;28;20031;-83
2021/03/22 01:19:09;;;;;;;3.92;0.52;;;19.90;37.60;;;;;;5030005;28;20039;-85
2021/03/22 01:21:40;;;;;;;2.67;0.40;;;19.80;37.50;;;;;;5029876;28;20033;-85
2021/03/22 01:24:08;;;;;;;2.00;0.40;;;19.90;37.60;;;;;;5048807;28;20044;-83
2021/03/22 01:26:35;;;;;;;1.70;0.20;;;19.80;37.60;;;;;;5025770;28;20088;-82
2021/03/22 01:29:07;;;;;;;1.70;0.40;;;19.80;37.60;;;;;;5028994;28;20024;-82
2021/03/22 01:31:33;;;;;;;1.33;0.17;;;19.80;37.50;;;;;;5045206;28;20033;-82
2021/03/22 01:33:59;;;;;;;1.40;0.40;;;19.80;37.50;;;;;;5044863;28;20102;-84
2021/03/22 01:36:30;;;;;;;1.10;0.25;;;19.80;37.50;;;;;;5030892;28;20384;-83
2021/03/22 01:39:00;;;;;;;1.45;0.20;;;19.80;37.50;;;;;;5026857;28;20483;-83
2021/03/22 01:41:55;;;;;;;1.90;0.10;;;19.80;37.60;;;;;;5027199;28;20570;-81
2021/03/22 01:44:23;;;;;;;1.58;0.30;;;19.80;37.50;;;;;;5043500;28;20032;-83
2021/03/22 01:47:03;;;;;;;3.28;0.25;;;19.80;37.50;;;;;;5043956;28;20475;-81
2021/03/22 01:49:36;;;;;;;1.40;0.35;;;19.80;37.50;;;;;;5025774;28;20362;-83
2021/03/22 01:52:02;;;;;;;1.02;0.20;;;19.80;37.50;;;;;;5026996;28;20020;-82
2021/03/22 01:54:28;;;;;;;2.72;0.30;;;19.80;37.50;;;;;;5023697;28;20492;-82
2021/03/22 01:57:15;;;;;;;1.13;0.22;;;19.70;37.50;;;;;;5026947;28;20017;-82
2021/03/22 01:59:41;;;;;;;1.33;0.20;;;19.70;37.50;;;;;;5026849;28;20484;-82
2021/03/22 02:02:08;;;;;;;1.80;0.30;;;19.70;38.00;;;;;;5024886;28;20029;-82
2021/03/22 02:04:33;;;;;;;1.88;0.20;;;19.70;37.40;;;;;;5023845;28;20025;-81
2021/03/22 02:07:00;;;;;;;1.98;0.10;;;19.70;37.50;;;;;;5044165;28;20027;-81
2021/03/22 02:09:27;;;;;;;3.55;0.40;;;19.70;37.50;;;;;;5026506;28;20790;-81
2021/03/22 02:11:52;;;;;;;2.55;0.30;;;19.70;37.50;;;;;;5058631;28;20029;-81
2021/03/22 02:14:18;;;;;;;1.60;0.20;;;19.70;37.50;;;;;;5060407;28;20102;-81
2021/03/22 02:17:06;;;;;;;1.77;0.20;;;19.70;37.50;;;;;;5045026;28;20109;-83
2021/03/22 02:20:06;;;;;;;1.35;0.20;;;19.70;37.50;;;;;;5061814;28;20040;-82
2021/03/22 02:22:50;;;;;;;1.35;0.13;;;19.70;37.50;;;;;;5044195;28;20047;-83
2021/03/22 02:25:57;;;;;;;3.28;0.17;;;19.70;37.50;;;;;;5043664;28;20025;-83
2021/03/22 02:28:39;;;;;;;1.27;0.20;;;19.70;37.50;;;;;;5011214;28;20071;-82
2021/03/22 02:31:12;;;;;;;0.95;0.13;;;19.70;37.50;;;;;;5028019;28;20051;-83
2021/03/22 02:33:58;;;;;;;1.58;0.17;;;19.70;37.40;;;;;;5040392;28;20108;-83
2021/03/22 02:36:36;;;;;;;2.72;0.17;;;19.70;37.40;;;;;;5037427;28;20550;-82
2021/03/22 02:39:04;;;;;;;0.63;0.10;;;19.70;37.50;;;;;;5026257;28;20024;-84
2021/03/22 02:41:37;;;;;;;0.90;0.20;;;19.70;37.40;;;;;;5045205;28;20132;-83
2021/03/22 02:44:09;;;;;;;1.17;0.10;;;19.60;37.40;;;;;;5023970;28;20060;-82
2021/03/22 02:46:36;;;;;;;0.98;0.20;;;19.60;37.40;;;;;;5042237;28;20032;-83
2021/03/22 02:49:08;;;;;;;4.00;0.13;;;19.60;37.40;;;;;;5056324;28;20388;-82
2021/03/22 02:52:04;;;;;;;1.23;0.20;;;19.60;37.60;;;;;;5023947;28;20086;-84
2021/03/22 02:54:52;;;;;;;2.03;0.22;;;19.60;37.40;;;;;;5027859;28;20060;-83
2021/03/22 02:57:42;;;;;;;1.25;0.30;;;19.60;37.40;;;;;;5028038;28;20037;-83
2021/03/22 03:00:34;;;;;;;1.13;0.20;;;19.60;37.40;;;;;;5044732;28;20028;-84
2021/03/22 03:03:03;;;;;;;1.73;0.20;;;19.60;37.40;;;;;;5027496;28;20059;-85
2021/03/22 03:05:31;;;;;;;3.78;0.17;;;19.60;37.40;;;;;;5025174;28;20036;-84
2021/03/22 03:08:05;;;;;;;1.38;0.10;;;19.60;37.30;;;;;;5025814;28;20025;-84
2021/03/22 03:10:31;;;;;;;1.42;0.20;;;19.60;37.30;;;;;;5027633;28;20127;-84
2021/03/22 03:12:57;;;;;;;3.10;0.15;;;19.60;37.30;;;;;;5021171;28;20022;-84
2021/03/22 03:15:23;;;;;;;1.30;0.10;;;19.60;37.40;;;;;;5032120;28;20043;-86
2021/03/22 03:17:51;;;;;;;2.05;0.40;;;19.60;37.40;;;;;;5029122;28;20224;-84
2021/03/22 03:20:22;;;;;;;1.02;0.20;;;19.50;37.30;;;;;;5036148;28;20033;-85
2021/03/22 03:22:47;;;;;;;3.65;0.20;;;19.50;37.40;;;;;;5045376;28;20035;-85
2021/03/22 03:25:14;;;;;;;0.90;0.20;;;19.50;37.40;;;;;;5046164;28;20111;-86
2021/03/22 03:27:40;;;;;;;1.30;0.20;;;19.50;37.30;;;;;;5022714;28;20423;-83
2021/03/22 03:30:12;;;;;;;3.17;0.30;;;19.60;37.30;;;;;;5059839;28;20029;-83
2021/03/22 03:32:38;;;;;;;1.17;0.08;;;19.50;37.30;;;;;;5045038;28;20113;-84
2021/03/22 03:35:09;;;;;;;0.95;0.10;;;19.50;37.30;;;;;;5042718;28;20120;-86
2021/03/22 03:37:35;;;;;;;0.68;0.10;;;19.50;37.30;;;;;;5024869;28;20040;-84
2021/03/22 03:40:04;;;;;;;1.00;0.30;;;19.50;37.40;;;;;;5042389;28;20025;-84
2021/03/22 03:42:30;;;;;;;1.85;0.10;;;19.50;37.40;;;;;;5041644;28;20025;-84
2021/03/22 03:44:56;;;;;;;1.13;0.20;;;19.50;37.60;;;;;;5043517;28;20697;-83
2021/03/22 03:47:21;;;;;;;1.73;0.20;;;19.50;37.40;;;;;;5029499;28;20106;-83
2021/03/22 03:49:47;;;;;;;0.90;0.10;;;19.50;37.40;;;;;;5026671;28;20082;-82
2021/03/22 03:52:12;;;;;;;1.02;0.20;;;19.50;37.40;;;;;;5061292;28;20035;-82
2021/03/22 03:54:38;;;;;;;1.35;0.30;;;19.50;37.40;;;;;;5025929;28;20059;-82
2021/03/22 03:57:04;;;;;;;0.82;0.10;;;19.50;37.40;;;;;;5039602;28;20029;-82
2021/03/22 03:59:30;;;;;;;1.38;0.10;;;19.50;37.40;;;;;;5028587;28;20016;-83
2021/03/22 04:01:56;;;;;;;0.85;0.10;;;19.50;37.40;;;;;;5041503;28;20432;-82
2021/03/22 04:04:22;;;;;;;1.58;0.22;;;19.50;37.40;;;;;;5046148;28;20032;-83
2021/03/22 04:06:47;;;;;;;0.88;0.13;;;19.50;37.40;;;;;;5030946;28;20022;-84
2021/03/22 04:09:15;;;;;;;1.98;0.20;;;19.50;37.40;;;;;;5032515;28;20055;-82
2021/03/22 04:11:45;;;;;;;1.83;0.13;;;19.40;37.80;;;;;;5030092;28;20562;-83
2021/03/22 04:14:18;;;;;;;1.40;0.13;;;19.40;37.40;;;;;;5029297;28;20094;-82
2021/03/22 04:16:44;;;;;;;1.85;0.20;;;19.50;37.40;;;;;;5047302;28;20025;-82
2021/03/22 04:19:10;;;;;;;1.67;0.20;;;19.40;37.30;;;;;;5032719;28;20511;-83
2021/03/22 04:21:36;;;;;;;0.47;0.10;;;19.40;37.40;;;;;;5031035;28;20536;-81
2021/03/22 04:24:03;;;;;;;1.95;0.20;;;19.40;37.30;;;;;;5028380;28;20021;-82
2021/03/22 04:26:28;;;;;;;1.88;0.20;;;19.40;37.30;;;;;;5028645;28;20484;-85
2021/03/22 04:28:54;;;;;;;1.95;0.22;;;19.40;37.40;;;;;;5027356;28;20237;-82
2021/03/22 04:31:22;;;;;;;0.88;0.10;;;19.40;37.30;;;;;;5031372;28;20060;-83
2021/03/22 04:33:50;;;;;;;0.80;0.20;;;19.40;37.30;;;;;;5029700;28;20021;-84
2021/03/22 04:36:18;;;;;;;1.73;0.30;;;19.40;37.30;;;;;;5029302;28;20439;-83
2021/03/22 04:38:44;;;;;;;0.90;0.20;;;19.40;37.40;;;;;;5025873;28;20024;-82
2021/03/22 04:41:09;;;;;;;4.38;0.20;;;19.40;37.40;;;;;;5027301;28;20092;-83
2021/03/22 04:43:35;;;;;;;1.40;0.20;;;19.40;37.40;;;;;;5045376;28;20055;-83
2021/03/22 04:46:02;;;;;;;0.73;0.13;;;19.40;37.40;;;;;;5059786;28;20366;-83
2021/03/22 04:48:27;;;;;;;1.23;0.10;;;19.40;37.40;;;;;;5048506;28;20492;-83
2021/03/22 04:50:53;;;;;;;1.17;0.25;;;19.40;37.40;;;;;;5046531;28;20055;-83
2021/03/22 04:53:19;;;;;;;2.15;0.30;;;19.30;37.40;;;;;;5047425;28;20056;-82
2021/03/22 04:55:44;;;;;;;1.50;0.20;;;19.40;37.90;;;;;;5046329;28;20497;-82
2021/03/22 04:58:11;;;;;;;1.02;0.17;;;19.30;37.40;;;;;;5046675;28;20463;-83
2021/03/22 05:00:44;;;;;;;0.90;0.10;;;19.30;37.40;;;;;;5047282;28;20059;-83
2021/03/22 05:03:12;;;;;;;0.40;0.10;;;19.40;37.50;;;;;;5028413;28;20060;-83
2021/03/22 05:05:39;;;;;;;0.90;0.10;;;19.30;37.40;;;;;;5030209;28;20065;-83
2021/03/22 05:08:06;;;;;;;1.25;0.17;;;19.30;37.50;;;;;;5063370;28;20476;-82
2021/03/22 05:10:35;;;;;;;0.98;0.10;;;19.30;37.50;;;;;;5062048;28;20506;-83
2021/03/22 05:13:02;;;;;;;1.02;0.20;;;19.30;37.50;;;;;;5042746;28;20036;-83
2021/03/22 05:15:27;;;;;;;2.92;0.30;;;19.30;37.40;;;;;;5027242;28;20061;-83
2021/03/22 05:17:54;;;;;;;0.88;0.10;;;19.30;37.40;;;;;;5040472;28;20501;-83
2021/03/22 05:20:25;;;;;;;0.65;0.20;;;19.30;37.50;;;;;;5023381;28;20040;-83
2021/03/22 05:22:51;;;;;;;1.77;0.15;;;19.30;37.40;;;;;;5043235;28;20032;-83
2021/03/22 05:25:17;;;;;;;1.95;0.10;;;19.30;37.40;;;;;;5028286;28;20032;-83
2021/03/22 05:27:44;;;;;;;3.45;0.30;;;19.30;37.50;;;;;;5042031;28;20024;-83
2021/03/22 05:30:14;;;;;;;0.95;0.10;;;19.30;37.50;;;;;;5029731;28;20657;-82
2021/03/22 05:32:40;;;;;;;0.77;0.10;;;19.30;37.40;;;;;;5026042;28;20048;-83
2021/03/22 05:35:21;;;;;;;0.80;0.10;;;19.30;37.50;;;;;;5044408;28;20108;-83
2021/03/22 05:37:46;;;;;;;1.15;0.43;;;19.30;37.50;;;;;;5054780;28;20028;-83
2021/03/22 05:40:22;;;;;;;1.92;0.20;;;19.30;37.50;;;;;;5035516;28;20081;-84
2021/03/22 05:42:50;;;;;;;0.93;0.15;;;19.30;37.50;;;;;;5031298;28;20027;-84
2021/03/22 05:45:51;;;;;;;0.98;0.20;;;19.30;37.50;;;;;;5045236;28;20492;-83
2021/03/22 05:48:55;;;;;;;1.58;0.20;;;19.30;37.50;;;;;;5015204;28;20067;-83
2021/03/22 05:51:45;;;;;;;0.60;0.17;;;19.30;37.50;;;;;;5028942;28;20504;-83
2021/03/22 05:54:17;;;;;;;1.05;0.30;;;19.30;37.60;;;;;;5030580;28;20025;-83
2021/03/22 05:56:59;;;;;;;1.45;0.17;;;19.20;37.40;;;;;;5032013;28;20025;-82
2021/03/22 05:59:36;;;;;;;1.27;0.20;;;19.20;37.50;;;;;;5046948;28;20111;-82
2021/03/22 06:02:28;;;;;;;1.05;0.20;;;19.30;37.50;;;;;;5047819;28;20032;-82
2021/03/22 06:04:54;;;;;;;0.85;0.20;;;19.30;37.50;;;;;;5013082;28;20059;-82
2021/03/22 06:07:23;;;;;;;0.75;0.10;;;19.20;37.40;;;;;;5052721;28;20417;-81
2021/03/22 06:09:59;;;;;;;1.30;0.20;;;19.20;37.50;;;;;;5046373;28;20437;-82
2021/03/22 06:12:27;;;;;;;1.42;0.10;;;19.20;37.50;;;;;;5061809;28;20036;-82
2021/03/22 06:14:59;;;;;;;1.73;0.28;;;19.20;37.50;;;;;;5042787;28;20040;-82
2021/03/22 06:17:35;;;;;;;1.15;0.10;;;19.20;37.40;;;;;;5041542;28;20033;-83
2021/03/22 06:20:03;;;;;;;1.25;0.20;;;19.20;37.40;;;;;;5044079;28;20024;-82
2021/03/22 06:22:31;;;;;;;0.80;0.10;;;19.20;37.40;;;;;;5025595;28;20032;-82
2021/03/22 06:24:59;;;;;;;0.60;0.20;;;19.20;37.50;;;;;;5028098;28;20029;-82
2021/03/22 06:27:25;;;;;;;5.97;0.30;;;19.30;37.50;;;;;;5044397;28;20083;-82
2021/03/22 06:29:53;;;;;;;1.33;0.30;;;19.30;37.30;;;;;;5027040;28;20029;-82
2021/03/22 06:32:27;;;;;;;1.63;0.10;;;19.50;37.20;;;;;;5042559;28;20029;-82
2021/03/22 06:34:56;;;;;;;0.77;0.10;;;19.70;37.50;;;;;;5023900;28;20021;-82
2021/03/22 06:37:26;;;;;;;2.17;0.30;;;19.80;36.70;;;;;;5025494;28;20064;-82
2021/03/22 06:40:12;;;;;;;1.73;0.17;;;19.90;36.60;;;;;;5043919;28;20040;-83
2021/03/22 06:42:39;;;;;;;1.27;0.20;;;20.10;36.50;;;;;;5025985;28;20028;-82
2021/03/22 06:45:30;;;;;;;1.58;0.20;;;20.10;36.40;;;;;;5024891;28;20564;-83
2021/03/22 06:48:21;;;;;;;3.22;0.15;;;20.20;36.30;;;;;;5028957;28;20017;-83
2021/03/22 06:50:50;;;;;;;1.42;0.17;;;20.20;36.20;;;;;;5026562;28;20060;-82
2021/03/22 06:53:30;;;;;;;1.77;0.10;;;20.30;36.20;;;;;;5043123;28;20481;-83
2021/03/22 06:56:14;;;;;;;0.70;0.10;;;20.30;36.20;;;;;;5043232;28;20606;-83
2021/03/22 06:58:41;;;;;;;0.50;0.10;;;20.30;36.30;;;;;;5038471;28;20029;-82
2021/03/22 07:01:33;;;;;;;0.90;0.25;;;20.30;36.40;;;;;;5040808;28;20497;-81
2021/03/22 07:04:22;;;;;;;0.90;0.30;;;20.40;36.40;;;;;;5021999;28;20041;-81
2021/03/22 07:07:09;;;;;;;1.15;0.30;;;20.40;36.40;;;;;;5059514;28;20395;-82
2021/03/22 07:09:38;;;;;;;0.90;0.20;;;20.50;36.40;;;;;;5055598;28;20137;-85
2021/03/22 07:12:05;;;;;;;1.05;0.10;;;20.50;36.30;;;;;;5022637;28;20089;-84
2021/03/22 07:14:32;;;;;;;3.22;0.73;;;20.60;36.40;;;;;;5021315;28;20029;-84
2021/03/22 07:17:15;;;;;;;1.48;0.30;;;20.60;36.30;;;;;;5041152;28;20519;-84
2021/03/22 07:19:41;;;;;;;1.15;0.20;;;20.60;36.30;;;;;;5040432;28;20103;-84
2021/03/22 07:22:21;;;;;;;3.45;0.32;;;20.60;36.30;;;;;;5059025;28;20040;-84
2021/03/22 07:24:57;;;;;;;2.03;0.20;;;20.60;36.40;;;;;;5025635;28;20029;-84
2021/03/22 07:27:25;;;;;;;0.70;0.20;;;20.60;36.40;;;;;;5040479;28;20109;-84
2021/03/22 07:30:12;;;;;;;3.33;0.30;;;20.60;36.40;;;;;;5058390;28;20060;-82
2021/03/22 07:32:51;;;;;;;2.20;0.22;;;20.60;36.40;;;;;;5039939;28;20588;-84
2021/03/22 07:35:28;;;;;;;2.88;0.40;;;20.60;36.40;;;;;;5041853;28;20029;-84
2021/03/22 07:38:02;;;;;;;3.65;0.35;;;20.60;36.50;;;;;;5043275;28;20040;-83
2021/03/22 07:40:49;;;;;;;1.27;0.43;;;20.60;36.50;;;;;;5046906;28;20032;-83
2021/03/22 07:43:29;;;;;;;3.22;0.47;;;20.60;36.50;;;;;;5047434;28;20103;-83
2021/03/22 07:46:28;;;;;;;7.10;0.40;;;20.60;36.60;;;;;;5063991;28;20076;-83
2021/03/22 07:49:16;;;;;;;2.80;0.50;;;20.50;36.60;;;;;;5026884;28;20263;-83
2021/03/22 07:51:53;;;;;;;2.17;0.43;;;20.50;36.60;;;;;;5043599;28;20093;-84
2021/03/22 07:54:45;;;;;;;1.27;0.38;;;20.50;36.70;;;;;;5044904;28;20067;-84
2021/03/22 07:57:33;;;;;;;4.00;0.55;;;20.40;36.60;;;;;;5070631;28;20040;-83
2021/03/22 08:00:23;;;;;;;1.95;0.40;;;20.40;36.70;;;;;;5050305;28;20040;-83
2021/03/22 08:03:05;;;;;;;3.70;0.45;;;20.40;36.70;;;;;;5030526;28;20477;-84
2021/03/22 08:05:41;;;;;;;2.50;0.40;;;20.40;36.80;;;;;;5065210;28;20025;-83
2021/03/22 08:08:43;;;;;;;2.33;0.50;;;20.40;37.30;;;;;;5043534;28;20412;-84
2021/03/22 08:11:36;;;;;;;1.00;0.22;;;20.40;36.90;;;;;;5061947;28;20016;-83
2021/03/22 08:14:30;;;;;;;6.07;0.60;;;20.30;36.90;;;;;;5030245;28;20102;-83
2021/03/22 08:17:00;;;;;;;2.42;0.50;;;20.30;36.90;;;;;;5030805;28;20081;-83
2021/03/22 08:19:43;;;;;;;1.88;0.20;;;20.30;37.00;;;;;;5063024;28;20032;-83
2021/03/22 08:22:33;;;;;;;2.35;0.40;;;20.30;37.00;;;;;;5042101;28;20590;-84
2021/03/22 08:25:17;;;;;;;2.45;0.70;;;20.20;37.00;;;;;;5045562;28;20044;-83
2021/03/22 08:28:13;;;;;;;3.80;0.47;;;20.20;37.10;;;;;;5046579;28;20025;-84
2021/03/22 08:30:54;;;;;;;1.58;0.50;;;20.20;37.10;;;;;;5040359;28;20037;-84
2021/03/22 08:33:43;;;;;;;3.30;0.38;;;20.20;37.10;;;;;;5023414;28;20512;-84
2021/03/22 08:36:40;;;;;;;2.53;0.70;;;20.20;37.70;;;;;;5026177;28;20028;-83
2021/03/22 08:39:15;;;;;;;1.88;0.52;;;20.10;37.10;;;;;;5048268;28;20049;-83
2021/03/22 08:42:16;;;;;;;3.67;0.70;;;20.10;37.20;;;;;;5029078;28;20031;-83
2021/03/22 08:44:56;;;;;;;0.90;0.30;;;20.10;37.20;;;;;;5044763;28;20388;-83
2021/03/22 08:48:07;;;;;;;2.00;0.32;;;20.10;37.20;;;;;;5065053;28;20484;-83
2021/03/22 08:50:35;;;;;;;1.90;0.60;;;20.30;37.00;;;;;;5041668;28;20103;-83
2021/03/22 08:53:10;;;;;;;1.90;0.68;;;20.40;36.80;;;;;;5028949;28;20596;-83
2021/03/22 08:55:38;;;;;;;2.85;0.32;;;20.60;36.70;;;;;;5028885;28;20056;-83
2021/03/22 08:58:33;;;;;;;2.33;0.55;;;20.70;36.50;;;;;;5041827;28;20507;-84
2021/03/22 09:01:07;;;;;;;2.00;0.50;;;20.80;36.40;;;;;;5044629;28;20036;-83
2021/03/22 09:03:36;;;;;;;2.00;0.60;;;20.90;36.30;;;;;;5027282;28;20093;-83
2021/03/22 09:06:28;;;;;;;1.70;0.50;;;20.90;36.30;;;;;;5028687;28;20443;-83
2021/03/22 09:08:59;;;;;;;;;;;21.00;36.30;;;;;;5028892;28;20086;-83
2021/03/22 09:11:29;;;;;;;1.38;0.38;;;21.00;36.20;;;;;;5045198;28;19950;-84
2021/03/22 09:13:57;;;;;;;2.67;0.60;;;21.10;36.30;;;;;;5044081;28;20043;-83
2021/03/22 09:16:22;;;;;;;1.67;0.75;;;21.10;36.30;;;;;;5042870;28;20098;-83
2021/03/22 09:19:09;;;;;;;1.42;0.50;;;21.10;36.30;;;;;;5043451;28;20639;-84
2021/03/22 09:21:43;;;;;;;1.58;0.77;;;21.10;36.30;;;;;;5031495;28;20044;-83
2021/03/22 09:24:41;;;;;;;2.35;0.43;;;21.20;36.30;;;;;;5041825;28;20271;-84
2021/03/22 09:27:16;;;;;;;1.55;0.70;;;21.10;36.40;;;;;;5042162;28;20039;-84
2021/03/22 09:29:46;;;;;;;3.75;0.52;;;21.10;36.70;;;;;;5027952;28;20099;-84
2021/03/22 09:32:23;;;;;;;4.72;0.88;;;21.10;37.00;;;;;;5041627;28;20028;-84
2021/03/22 09:34:50;;;;;;;2.35;0.40;;;21.00;37.30;;;;;;5047871;28;20038;-84
2021/03/22 09:37:48;;;;;;;2.15;0.73;;;21.00;37.50;;;;;;5027293;28;20477;-84
2021/03/22 09:40:20;;;;;;;1.63;0.90;;;21.00;37.80;;;;;;5042447;28;20082;-84
2021/03/22 09:43:12;;;;;;;2.22;0.70;;;20.90;38.00;;;;;;5061413;28;20025;-84
2021/03/22 09:45:56;;;;;;;1.85;0.90;;;20.90;38.10;;;;;;5029649;28;20025;-84
2021/03/22 09:48:37;;;;;;;1.92;0.98;;;20.90;38.20;;;;;;5042494;28;20025;-84
2021/03/22 09:51:03;;;;;;;1.70;0.75;;;20.90;38.30;;;;;;5044804;28;20265;-83
2021/03/22 09:54:01;;;;;;;4.22;0.68;;;20.90;38.20;;;;;;5025845;28;20021;-80
2021/03/22 09:56:29;;;;;;;2.58;0.90;;;20.90;38.60;;;;;;5058255;28;20055;-81
2021/03/22 09:59:38;;;;;;;0.88;0.25;;;20.90;38.20;;;;;;5040100;28;20021;-81
2021/03/22 10:02:38;;;;;;;1.92;0.73;;;20.80;38.20;;;;;;4976520;28;20053;-81
2021/03/22 10:05:22;;;;;;;3.85;0.52;;;20.80;38.30;;;;;;5038338;28;20029;-79
2021/03/22 10:08:00;;;;;;;4.95;0.77;;;20.80;38.20;;;;;;5060509;28;20025;-80
2021/03/22 10:11:05;;;;;;;2.75;0.73;;;20.80;38.10;;;;;;5058271;28;20077;-81
2021/03/22 10:13:39;;;;;;;7.25;0.75;;;20.70;38.10;;;;;;4992924;28;20067;-80
2021/03/22 10:16:17;;;;;;;1.58;0.38;;;20.70;38.10;;;;;;5025720;28;20025;-81
2021/03/22 10:18:55;;;;;;;5.72;0.50;;;20.70;38.10;;;;;;5041113;28;20043;-79
2021/03/22 10:21:26;;;;;;;1.83;0.38;;;20.70;38.10;;;;;;5041557;28;20029;-81
2021/03/22 10:24:41;;;;;;;2.60;0.43;;;20.70;38.10;;;;;;5060413;28;20025;-79
2021/03/22 10:27:38;;;;;;;1.85;0.28;;;20.70;38.10;;;;;;4972383;28;20037;-81
2021/03/22 10:30:30;;;;;;;1.85;0.43;;;20.70;38.10;;;;;;5042157;28;20402;-81
2021/03/22 10:32:59;;;;;;;2.85;0.40;;;20.60;38.30;;;;;;5035929;28;20288;-81
2021/03/22 10:35:50;;;;;;;1.50;0.20;;;20.70;38.10;;;;;;5040951;28;20084;-81
2021/03/22 10:38:34;;;;;;;3.00;0.25;;;20.60;38.10;;;;;;5033593;28;20052;-81
2021/03/22 10:41:02;;;;;;;2.97;0.50;;;20.60;38.10;;;;;;5059241;28;20039;-80
2021/03/22 10:43:39;;;;;;;0.93;0.25;;;20.60;38.10;;;;;;5060483;28;20082;-81
2021/03/22 10:46:19;;;;;;;3.13;0.43;;;20.60;38.10;;;;;;5043147;28;20145;-80
2021/03/22 10:48:57;;;;;;;1.23;0.40;;;20.60;38.10;;;;;;5057599;28;20031;-79
2021/03/22 10:51:35;;;;;;;1.05;0.35;;;20.60;38.10;;;;;;5041521;28;20107;-79
2021/03/22 10:54:15;;;;;;;1.50;0.30;;;20.60;38.20;;;;;;5023902;28;20036;-81
2021/03/22 10:56:48;;;;;;;1.30;0.35;;;20.50;38.10;;;;;;5041503;28;20042;-81
2021/03/22 10:59:49;;;;;;;3.03;0.52;;;20.50;38.20;;;;;;5040844;28;20029;-81
2021/03/22 11:02:26;;;;;;;1.17;0.32;;;20.50;38.20;;;;;;5000038;28;20047;-81
2021/03/22 11:04:52;;;;;;;1.63;0.60;;;20.60;38.20;;;;;;5058226;28;20037;-81
2021/03/22 11:07:21;;;;;;;1.20;0.50;;;20.60;38.20;;;;;;5042892;28;20036;-80
2021/03/22 11:09:57;;;;;;;1.25;0.38;;;20.60;38.10;;;;;;5040982;28;20025;-81
2021/03/22 11:12:26;;;;;;;3.33;0.25;;;20.70;37.80;;;;;;5022501;28;20014;-81
2021/03/22 11:15:12;;;;;;;1.40;0.43;;;20.80;37.70;;;;;;5041030;28;20045;-80
2021/03/22 11:17:40;;;;;;;1.35;0.30;;;20.80;37.50;;;;;;5041030;28;20116;-80
2021/03/22 11:20:07;;;;;;;1.23;0.35;;;20.90;37.40;;;;;;5041729;28;20385;-81
2021/03/22 11:22:42;;;;;;;1.67;0.30;;;21.00;37.30;;;;;;5060374;28;20044;-81
2021/03/22 11:25:30;;;;;;;1.10;0.25;;;21.10;37.20;;;;;;5023541;28;20036;-81
2021/03/22 11:27:59;;;;;;;0.73;0.30;;;21.20;37.70;;;;;;5039736;28;20070;-81
2021/03/22 11:30:32;;;;;;;1.30;0.40;;;21.20;37.10;;;;;;5042945;28;20099;-80
2021/03/22 11:32:58;;;;;;;0.95;0.50;;;21.30;37.10;;;;;;5059549;28;20166;-81
2021/03/22 11:35:30;;;;;;;0.98;0.52;;;21.30;37.00;;;;;;5041686;28;20060;-81
2021/03/22 11:38:02;;;;;;;2.72;0.30;;;21.30;37.00;;;;;;5037324;28;20033;-80
2021/03/22 11:40:33;;;;;;;2.72;0.35;;;21.30;37.00;;;;;;5037563;28;20055;-81
2021/03/22 11:43:22;;;;;;;1.45;0.40;;;21.40;37.10;;;;;;5058939;28;20029;-80
2021/03/22 11:45:48;;;;;;;1.70;0.40;;;21.30;37.00;;;;;;5059382;28;20025;-81
2021/03/22 11:48:20;;;;;;;2.83;0.30;;;21.40;37.10;;;;;;5039707;28;20037;-81
2021/03/22 11:50:46;;;;;;;;;;;21.30;37.10;;;;;;5024100;28;20017;-81
2021/03/22 11:53:13;;;;;;;1.75;0.43;;;21.30;37.10;;;;;;5057598;28;19948;-79
2021/03/22 11:55:38;;;;;;;1.17;0.35;;;21.30;37.10;;;;;;5020475;28;20018;-81
2021/03/22 11:58:04;;;;;;;1.20;0.32;;;21.30;37.20;;;;;;5041840;28;20397;-80
2021/03/22 12:00:35;;;;;;;1.15;0.40;;;21.30;37.20;;;;;;5054470;28;20047;-81
2021/03/22 12:03:22;;;;;;;1.15;0.28;;;21.30;37.30;;;;;;5041924;28;20033;-81
2021/03/22 12:06:03;;;;;;;1.27;0.40;;;21.30;37.30;;;;;;5043849;28;20025;-81
2021/03/22 12:08:45;;;;;;;0.55;0.30;;;21.20;37.30;;;;;;5040983;28;20021;-80
2021/03/22 12:11:24;;;;;;;2.95;0.30;;;21.20;37.40;;;;;;5039457;28;20262;-82
2021/03/22 12:13:54;;;;;;;1.35;0.35;;;21.20;37.40;;;;;;5040856;28;20047;-81
2021/03/22 12:16:23;;;;;;;1.40;0.40;;;21.20;37.40;;;;;;5042292;28;20033;-79
2021/03/22 12:18:51;;;;;;;1.38;0.30;;;21.20;37.40;;;;;;5056049;28;20094;-80
2021/03/22 12:21:17;;;;;;;1.60;0.50;;;21.20;37.50;;;;;;5056669;28;20028;-80
2021/03/22 12:23:43;;;;;;;1.67;0.30;;;21.20;37.50;;;;;;5042537;28;20404;-81
2021/03/22 12:26:12;;;;;;;1.17;0.30;;;21.10;37.50;;;;;;5048999;28;20028;-80
2021/03/22 12:28:53;;;;;;;1.92;0.50;;;21.10;37.50;;;;;;5030717;28;20507;-80
2021/03/22 12:31:27;;;;;;;1.08;0.40;;;21.10;37.50;;;;;;5057046;28;20040;-81
2021/03/22 12:33:56;;;;;;;3.42;0.70;;;21.10;37.50;;;;;;5024954;28;20032;-79
2021/03/22 12:36:21;;;;;;;1.10;0.32;;;21.10;37.50;;;;;;5027670;28;20021;-80
2021/03/22 12:38:47;;;;;;;2.08;0.60;;;21.10;37.60;;;;;;5045558;28;20496;-80
2021/03/22 12:41:27;;;;;;;1.30;0.38;;;21.00;37.60;;;;;;5060980;28;20039;-80
2021/03/22 12:43:53;;;;;;;1.23;0.35;;;21.00;37.80;;;;;;5059642;28;20040;-81
2021/03/22 12:46:18;;;;;;;3.95;0.45;;;21.00;37.90;;;;;;5064182;28;20032;-80
2021/03/22 12:48:44;;;;;;;2.80;0.50;;;20.90;38.00;;;;;;5025602;28;20048;-80
2021/03/22 12:51:10;;;;;;;1.55;0.35;;;20.90;38.10;;;;;;5045179;28;20024;-80
2021/03/22 12:53:35;;;;;;;1.80;0.40;;;20.90;38.20;;;;;;5044062;28;20133;-80
2021/03/22 12:56:01;;;;;;;1.38;0.40;;;20.90;38.40;;;;;;5042030;28;20024;-81
2021/03/22 12:58:27;;;;;;;2.55;0.60;;;20.90;38.40;;;;;;5042572;28;20107;-81
2021/03/22 13:00:55;;;;;;;1.60;0.60;;;20.90;38.40;;;;;;5038094;28;20042;-80
2021/03/22 13:03:23;;;;;;;2.00;1.13;;;20.90;38.50;;;;;;5042429;28;20476;-81
2021/03/22 13:05:52;;;;;;;1.08;0.32;;;20.90;38.70;;;;;;5038735;28;20119;-80
2021/03/22 13:08:18;;;;;;;1.70;0.50;;;20.80;38.60;;;;;;5042826;28;20021;-80
2021/03/22 13:10:44;;;;;;;1.50;0.47;;;20.80;38.70;;;;;;5045723;28;20054;-80
2021/03/22 13:13:10;;;;;;;2.22;0.47;;;20.80;38.90;;;;;;5040738;28;20096;-81
2021/03/22 13:15:47;;;;;;;2.38;0.80;;;20.80;39.00;;;;;;5042148;28;20182;-81
2021/03/22 13:18:20;;;;;;;1.10;0.43;;;20.80;39.00;;;;;;5041065;28;20320;-80
2021/03/22 13:20:49;;;;;;;2.45;0.60;;;20.70;39.00;;;;;;5024157;28;20025;-81
2021/03/22 13:23:17;;;;;;;1.95;0.30;;;20.70;39.10;;;;;;5020012;28;20032;-79